sensor_id;sensor_type;location;lat;lon;timestamp;temperature;humidity
66013;DHT22;52783;50.502;8.190;2023-06-26T00:01:17;20.50;99.90
66013;DHT22;52783;50.502;8.190;2023-06-26T00:03:47;20.50;99.90
66013;DHT22;52783;50.502;8.190;2023-06-26T00:06:13;20.40;99.90
66013;DHT22;52783;50.502;8.190;2023-06-26T00:08:39;20.40;99.90
66013;DHT22;52783;50.502;8.190;2023-06-26T00:11:04;20.40;99.90
66013;DHT22;52783;50.502;8.190;2023-06-26T00:13:30;20.40;99.90
66013;DHT22;52783;50.502;8.190;2023-06-26T00:15:55;20.40;99.90
66013;DHT22;52783;50.502;8.190;2023-06-26T00:18:21;20.40;99.90
66013;DHT22;52783;50.502;8.190;2023-06-26T00:20:48;20.40;99.90
66013;DHT22;52783;50.502;8.190;2023-06-26T00:23:16;20.40;99.90
66013;DHT22;52783;50.502;8.190;2023-06-26T00:25:42;20.30;99.90
66013;DHT22;52783;50.502;8.190;2023-06-26T00:28:07;20.30;99.90
66013;DHT22;52783;50.502;8.190;2023-06-26T00:30:33;20.20;99.90
66013;DHT22;52783;50.502;8.190;2023-06-26T00:32:59;20.20;99.90
66013;DHT22;52783;50.502;8.190;2023-06-26T00:35:24;20.30;99.90
66013;DHT22;52783;50.502;8.190;2023-06-26T00:37:50;20.20;99.90
66013;DHT22;52783;50.502;8.190;2023-06-26T00:40:16;20.20;99.90
66013;DHT22;52783;50.502;8.190;2023-06-26T00:42:41;20.10;99.90
66013;DHT22;52783;50.502;8.190;2023-06-26T00:45:07;20.10;99.90
66013;DHT22;52783;50.502;8.190;2023-06-26T00:47:33;20.10;99.90
66013;DHT22;52783;50.502;8.190;2023-06-26T00:49:58;20.10;99.90
66013;DHT22;52783;50.502;8.190;2023-06-26T00:52:24;20.10;99.90
66013;DHT22;52783;50.502;8.190;2023-06-26T00:54:50;20.00;99.90
66013;DHT22;52783;50.502;8.190;2023-06-26T00:57:17;19.90;99.90
66013;DHT22;52783;50.502;8.190;2023-06-26T00:59:43;19.90;99.90
66013;DHT22;52783;50.502;8.190;2023-06-26T01:02:08;19.80;99.90
66013;DHT22;52783;50.502;8.190;2023-06-26T01:04:35;19.80;99.90
66013;DHT22;52783;50.502;8.190;2023-06-26T01:07:02;19.70;99.90
66013;DHT22;52783;50.502;8.190;2023-06-26T01:09:28;19.80;99.90
66013;DHT22;52783;50.502;8.190;2023-06-26T01:11:53;19.80;99.90
66013;DHT22;52783;50.502;8.190;2023-06-26T01:14:19;19.70;99.90
66013;DHT22;52783;50.502;8.190;2023-06-26T01:16:45;19.70;99.90
66013;DHT22;52783;50.502;8.190;2023-06-26T01:19:20;19.60;99.90
66013;DHT22;52783;50.502;8.190;2023-06-26T01:21:56;19.60;99.90
66013;DHT22;52783;50.502;8.190;2023-06-26T01:24:25;19.50;99.90
66013;DHT22;52783;50.502;8.190;2023-06-26T01:26:58;19.40;99.90
66013;DHT22;52783;50.502;8.190;2023-06-26T01:29:25;19.40;99.90
66013;DHT22;52783;50.502;8.190;2023-06-26T01:31:51;19.30;99.90
66013;DHT22;52783;50.502;8.190;2023-06-26T01:34:17;19.30;99.90
66013;DHT22;52783;50.502;8.190;2023-06-26T01:36:44;19.30;99.90
66013;DHT22;52783;50.502;8.190;2023-06-26T01:39:14;19.30;99.90
66013;DHT22;52783;50.502;8.190;2023-06-26T01:41:39;19.30;99.90
66013;DHT22;52783;50.502;8.190;2023-06-26T01:46:40;19.20;99.90
66013;DHT22;52783;50.502;8.190;2023-06-26T01:51:46;19.30;99.90
66013;DHT22;52783;50.502;8.190;2023-06-26T01:54:18;19.30;99.90
66013;DHT22;52783;50.502;8.190;2023-06-26T01:56:45;19.30;99.90
66013;DHT22;52783;50.502;8.190;2023-06-26T01:59:14;19.30;99.90
66013;DHT22;52783;50.502;8.190;2023-06-26T02:01:41;19.30;99.90
66013;DHT22;52783;50.502;8.190;2023-06-26T02:04:06;19.40;99.90
66013;DHT22;52783;50.502;8.190;2023-06-26T02:06:32;19.30;99.90
66013;DHT22;52783;50.502;8.190;2023-06-26T02:08:57;19.20;99.90
66013;DHT22;52783;50.502;8.190;2023-06-26T02:11:23;19.20;99.90
66013;DHT22;52783;50.502;8.190;2023-06-26T02:13:49;19.20;99.90
66013;DHT22;52783;50.502;8.190;2023-06-26T02:16:14;19.10;99.90
66013;DHT22;52783;50.502;8.190;2023-06-26T02:18:40;19.10;99.90
66013;DHT22;52783;50.502;8.190;2023-06-26T02:21:06;19.10;99.90
66013;DHT22;52783;50.502;8.190;2023-06-26T02:23:32;19.20;99.90
66013;DHT22;52783;50.502;8.190;2023-06-26T02:25:58;19.30;99.90
66013;DHT22;52783;50.502;8.190;2023-06-26T02:28:23;19.20;99.90
66013;DHT22;52783;50.502;8.190;2023-06-26T02:30:49;19.20;99.90
66013;DHT22;52783;50.502;8.190;2023-06-26T02:33:14;19.10;99.90
66013;DHT22;52783;50.502;8.190;2023-06-26T02:35:40;19.00;99.90
66013;DHT22;52783;50.502;8.190;2023-06-26T02:38:05;18.90;99.90
66013;DHT22;52783;50.502;8.190;2023-06-26T02:40:31;18.90;99.90
66013;DHT22;52783;50.502;8.190;2023-06-26T02:42:56;18.80;99.90
66013;DHT22;52783;50.502;8.190;2023-06-26T02:45:22;18.80;99.90
66013;DHT22;52783;50.502;8.190;2023-06-26T02:47:47;18.80;99.90
66013;DHT22;52783;50.502;8.190;2023-06-26T02:50:13;18.70;99.90
66013;DHT22;52783;50.502;8.190;2023-06-26T02:52:39;18.70;99.90
66013;DHT22;52783;50.502;8.190;2023-06-26T02:55:05;18.70;99.90
66013;DHT22;52783;50.502;8.190;2023-06-26T02:57:30;18.70;99.90
66013;DHT22;52783;50.502;8.190;2023-06-26T02:59:56;18.60;99.90
66013;DHT22;52783;50.502;8.190;2023-06-26T03:02:21;18.60;99.90
66013;DHT22;52783;50.502;8.190;2023-06-26T03:04:47;18.60;99.90
66013;DHT22;52783;50.502;8.190;2023-06-26T03:07:12;18.50;99.90
66013;DHT22;52783;50.502;8.190;2023-06-26T03:09:38;18.60;99.90
66013;DHT22;52783;50.502;8.190;2023-06-26T03:12:04;18.60;99.90
66013;DHT22;52783;50.502;8.190;2023-06-26T03:14:30;18.60;99.90
66013;DHT22;52783;50.502;8.190;2023-06-26T03:16:57;18.70;99.90
66013;DHT22;52783;50.502;8.190;2023-06-26T03:19:24;18.70;99.90
66013;DHT22;52783;50.502;8.190;2023-06-26T03:21:49;18.70;99.90
66013;DHT22;52783;50.502;8.190;2023-06-26T03:24:15;18.60;99.90
66013;DHT22;52783;50.502;8.190;2023-06-26T03:26:40;18.50;99.90
66013;DHT22;52783;50.502;8.190;2023-06-26T03:29:06;18.60;99.90
66013;DHT22;52783;50.502;8.190;2023-06-26T03:31:31;18.60;99.90
66013;DHT22;52783;50.502;8.190;2023-06-26T03:33:57;18.60;99.90
66013;DHT22;52783;50.502;8.190;2023-06-26T03:36:23;18.60;99.90
66013;DHT22;52783;50.502;8.190;2023-06-26T03:38:48;18.60;99.90
66013;DHT22;52783;50.502;8.190;2023-06-26T03:41:14;18.60;99.90
66013;DHT22;52783;50.502;8.190;2023-06-26T03:43:39;18.60;99.90
66013;DHT22;52783;50.502;8.190;2023-06-26T03:46:05;18.50;99.90
66013;DHT22;52783;50.502;8.190;2023-06-26T03:48:30;18.60;99.90
66013;DHT22;52783;50.502;8.190;2023-06-26T03:50:56;18.60;99.90
66013;DHT22;52783;50.502;8.190;2023-06-26T03:53:21;18.60;99.90
66013;DHT22;52783;50.502;8.190;2023-06-26T03:55:47;18.60;99.90
66013;DHT22;52783;50.502;8.190;2023-06-26T03:58:12;18.70;99.90
66013;DHT22;52783;50.502;8.190;2023-06-26T04:00:38;18.70;99.90
66013;DHT22;52783;50.502;8.190;2023-06-26T04:03:03;18.70;99.90
66013;DHT22;52783;50.502;8.190;2023-06-26T04:05:29;18.70;99.90
66013;DHT22;52783;50.502;8.190;2023-06-26T04:07:55;18.70;99.90
66013;DHT22;52783;50.502;8.190;2023-06-26T04:10:20;18.70;99.90
66013;DHT22;52783;50.502;8.190;2023-06-26T04:12:47;18.80;99.90
66013;DHT22;52783;50.502;8.190;2023-06-26T04:15:13;18.90;99.90
66013;DHT22;52783;50.502;8.190;2023-06-26T04:17:39;18.90;99.90
66013;DHT22;52783;50.502;8.190;2023-06-26T04:20:05;18.90;99.90
66013;DHT22;52783;50.502;8.190;2023-06-26T04:22:34;19.00;99.90
66013;DHT22;52783;50.502;8.190;2023-06-26T04:25:03;19.10;99.90
66013;DHT22;52783;50.502;8.190;2023-06-26T04:27:29;19.40;99.90
66013;DHT22;52783;50.502;8.190;2023-06-26T04:29:55;19.60;99.90
66013;DHT22;52783;50.502;8.190;2023-06-26T04:32:21;20.00;99.90
66013;DHT22;52783;50.502;8.190;2023-06-26T04:34:46;20.40;99.90
66013;DHT22;52783;50.502;8.190;2023-06-26T04:37:13;20.90;99.90
66013;DHT22;52783;50.502;8.190;2023-06-26T04:39:42;21.30;99.90
66013;DHT22;52783;50.502;8.190;2023-06-26T04:42:08;21.80;99.90
66013;DHT22;52783;50.502;8.190;2023-06-26T04:44:34;22.30;99.90
66013;DHT22;52783;50.502;8.190;2023-06-26T04:47:00;22.80;99.90
66013;DHT22;52783;50.502;8.190;2023-06-26T04:49:26;23.40;99.90
66013;DHT22;52783;50.502;8.190;2023-06-26T04:51:54;23.80;99.90
66013;DHT22;52783;50.502;8.190;2023-06-26T04:54:19;24.00;99.90
66013;DHT22;52783;50.502;8.190;2023-06-26T04:56:45;24.60;99.90
66013;DHT22;52783;50.502;8.190;2023-06-26T04:59:12;25.00;99.90
66013;DHT22;52783;50.502;8.190;2023-06-26T05:01:39;25.10;99.90
66013;DHT22;52783;50.502;8.190;2023-06-26T05:04:05;25.20;99.90
66013;DHT22;52783;50.502;8.190;2023-06-26T05:06:31;25.50;99.90
66013;DHT22;52783;50.502;8.190;2023-06-26T05:08:56;25.90;99.90
66013;DHT22;52783;50.502;8.190;2023-06-26T05:11:22;26.30;99.90
66013;DHT22;52783;50.502;8.190;2023-06-26T05:13:49;26.50;99.90
66013;DHT22;52783;50.502;8.190;2023-06-26T05:16:14;27.00;99.90
66013;DHT22;52783;50.502;8.190;2023-06-26T05:18:40;27.10;99.90
66013;DHT22;52783;50.502;8.190;2023-06-26T05:21:06;27.10;99.90
66013;DHT22;52783;50.502;8.190;2023-06-26T05:23:32;27.30;99.90
66013;DHT22;52783;50.502;8.190;2023-06-26T05:26:02;26.90;99.90
66013;DHT22;52783;50.502;8.190;2023-06-26T05:28:29;26.80;99.90
66013;DHT22;52783;50.502;8.190;2023-06-26T05:30:57;27.10;99.90
66013;DHT22;52783;50.502;8.190;2023-06-26T05:33:24;27.50;99.90
66013;DHT22;52783;50.502;8.190;2023-06-26T05:35:52;27.60;99.90
66013;DHT22;52783;50.502;8.190;2023-06-26T05:38:18;28.20;99.90
66013;DHT22;52783;50.502;8.190;2023-06-26T05:40:44;28.70;99.90
66013;DHT22;52783;50.502;8.190;2023-06-26T05:43:10;29.00;99.90
66013;DHT22;52783;50.502;8.190;2023-06-26T05:45:36;28.00;99.90
66013;DHT22;52783;50.502;8.190;2023-06-26T05:48:02;28.50;99.90
66013;DHT22;52783;50.502;8.190;2023-06-26T05:50:28;28.90;99.90
66013;DHT22;52783;50.502;8.190;2023-06-26T05:52:54;28.50;99.90
66013;DHT22;52783;50.502;8.190;2023-06-26T05:55:20;28.90;99.90
66013;DHT22;52783;50.502;8.190;2023-06-26T05:57:46;29.00;99.90
66013;DHT22;52783;50.502;8.190;2023-06-26T06:00:12;29.10;99.90
66013;DHT22;52783;50.502;8.190;2023-06-26T06:02:39;29.50;99.90
66013;DHT22;52783;50.502;8.190;2023-06-26T06:05:05;29.60;99.90
66013;DHT22;52783;50.502;8.190;2023-06-26T06:07:32;29.80;99.90
66013;DHT22;52783;50.502;8.190;2023-06-26T06:09:58;29.80;99.90
66013;DHT22;52783;50.502;8.190;2023-06-26T06:12:24;30.30;99.90
66013;DHT22;52783;50.502;8.190;2023-06-26T06:14:50;30.60;99.90
66013;DHT22;52783;50.502;8.190;2023-06-26T06:17:16;30.80;99.90
66013;DHT22;52783;50.502;8.190;2023-06-26T06:19:41;31.10;99.90
66013;DHT22;52783;50.502;8.190;2023-06-26T06:22:07;31.00;99.90
66013;DHT22;52783;50.502;8.190;2023-06-26T06:24:32;31.20;99.90
66013;DHT22;52783;50.502;8.190;2023-06-26T06:26:58;31.10;99.90
66013;DHT22;52783;50.502;8.190;2023-06-26T06:29:23;30.20;99.90
66013;DHT22;52783;50.502;8.190;2023-06-26T06:31:49;29.90;99.90
66013;DHT22;52783;50.502;8.190;2023-06-26T06:34:14;30.30;99.90
66013;DHT22;52783;50.502;8.190;2023-06-26T06:36:40;29.60;99.90
66013;DHT22;52783;50.502;8.190;2023-06-26T06:39:05;30.10;99.90
66013;DHT22;52783;50.502;8.190;2023-06-26T06:41:31;29.10;99.90
66013;DHT22;52783;50.502;8.190;2023-06-26T06:43:56;30.30;99.90
66013;DHT22;52783;50.502;8.190;2023-06-26T06:46:22;30.90;99.90
66013;DHT22;52783;50.502;8.190;2023-06-26T06:48:48;30.90;99.90
66013;DHT22;52783;50.502;8.190;2023-06-26T06:51:13;30.10;99.90
66013;DHT22;52783;50.502;8.190;2023-06-26T06:53:39;31.00;99.90
66013;DHT22;52783;50.502;8.190;2023-06-26T06:56:04;31.20;99.90
66013;DHT22;52783;50.502;8.190;2023-06-26T06:58:30;30.20;99.90
66013;DHT22;52783;50.502;8.190;2023-06-26T07:00:59;30.70;99.90
66013;DHT22;52783;50.502;8.190;2023-06-26T07:03:24;30.80;99.90
66013;DHT22;52783;50.502;8.190;2023-06-26T07:05:50;31.10;99.90
66013;DHT22;52783;50.502;8.190;2023-06-26T07:08:16;30.90;99.90
66013;DHT22;52783;50.502;8.190;2023-06-26T07:10:41;30.30;99.90
66013;DHT22;52783;50.502;8.190;2023-06-26T07:13:07;30.60;99.90
66013;DHT22;52783;50.502;8.190;2023-06-26T07:15:32;30.30;99.90
66013;DHT22;52783;50.502;8.190;2023-06-26T07:17:58;30.30;99.90
66013;DHT22;52783;50.502;8.190;2023-06-26T07:20:24;29.70;99.90
66013;DHT22;52783;50.502;8.190;2023-06-26T07:22:50;30.70;99.90
66013;DHT22;52783;50.502;8.190;2023-06-26T07:25:15;30.10;99.90
66013;DHT22;52783;50.502;8.190;2023-06-26T07:27:41;30.30;99.90
66013;DHT22;52783;50.502;8.190;2023-06-26T07:30:08;30.60;99.90
66013;DHT22;52783;50.502;8.190;2023-06-26T07:32:37;30.40;99.90
66013;DHT22;52783;50.502;8.190;2023-06-26T07:35:03;30.60;99.90
66013;DHT22;52783;50.502;8.190;2023-06-26T07:37:28;30.10;99.90
66013;DHT22;52783;50.502;8.190;2023-06-26T07:39:54;29.00;99.90
66013;DHT22;52783;50.502;8.190;2023-06-26T07:42:20;28.70;99.90
66013;DHT22;52783;50.502;8.190;2023-06-26T07:44:45;29.00;99.90
66013;DHT22;52783;50.502;8.190;2023-06-26T07:47:11;28.30;99.90
66013;DHT22;52783;50.502;8.190;2023-06-26T07:49:37;28.30;99.90
66013;DHT22;52783;50.502;8.190;2023-06-26T07:52:05;29.10;99.90
66013;DHT22;52783;50.502;8.190;2023-06-26T07:54:31;29.90;99.90
66013;DHT22;52783;50.502;8.190;2023-06-26T07:57:01;29.50;99.90
66013;DHT22;52783;50.502;8.190;2023-06-26T07:59:28;30.30;99.90
66013;DHT22;52783;50.502;8.190;2023-06-26T08:01:55;30.50;99.90
66013;DHT22;52783;50.502;8.190;2023-06-26T08:04:23;29.60;99.90
66013;DHT22;52783;50.502;8.190;2023-06-26T08:06:52;29.90;99.90
66013;DHT22;52783;50.502;8.190;2023-06-26T08:09:19;30.30;99.90
66013;DHT22;52783;50.502;8.190;2023-06-26T08:11:45;30.70;99.90
66013;DHT22;52783;50.502;8.190;2023-06-26T08:14:11;30.50;99.90
66013;DHT22;52783;50.502;8.190;2023-06-26T08:16:38;30.90;99.90
66013;DHT22;52783;50.502;8.190;2023-06-26T08:19:04;31.00;99.90
66013;DHT22;52783;50.502;8.190;2023-06-26T08:21:30;31.40;99.90
66013;DHT22;52783;50.502;8.190;2023-06-26T08:23:55;30.90;99.90
66013;DHT22;52783;50.502;8.190;2023-06-26T08:26:21;31.50;99.90
66013;DHT22;52783;50.502;8.190;2023-06-26T08:28:46;31.90;99.90
66013;DHT22;52783;50.502;8.190;2023-06-26T08:31:12;32.10;99.90
66013;DHT22;52783;50.502;8.190;2023-06-26T08:33:38;31.90;99.90
66013;DHT22;52783;50.502;8.190;2023-06-26T08:36:03;31.50;99.90
66013;DHT22;52783;50.502;8.190;2023-06-26T08:38:29;31.20;99.90
66013;DHT22;52783;50.502;8.190;2023-06-26T08:40:54;31.30;99.90
66013;DHT22;52783;50.502;8.190;2023-06-26T08:43:20;31.60;99.90
66013;DHT22;52783;50.502;8.190;2023-06-26T08:45:47;31.30;99.90
66013;DHT22;52783;50.502;8.190;2023-06-26T08:48:17;31.50;99.90
66013;DHT22;52783;50.502;8.190;2023-06-26T08:50:43;31.50;99.90
66013;DHT22;52783;50.502;8.190;2023-06-26T08:53:37;31.30;99.90
66013;DHT22;52783;50.502;8.190;2023-06-26T08:56:06;31.90;99.90
66013;DHT22;52783;50.502;8.190;2023-06-26T08:58:32;31.50;99.90
66013;DHT22;52783;50.502;8.190;2023-06-26T09:00:59;31.60;99.90
66013;DHT22;52783;50.502;8.190;2023-06-26T09:03:26;32.10;99.90
66013;DHT22;52783;50.502;8.190;2023-06-26T09:05:51;31.40;99.90
66013;DHT22;52783;50.502;8.190;2023-06-26T09:08:17;31.90;99.90
66013;DHT22;52783;50.502;8.190;2023-06-26T09:10:42;30.00;99.90
66013;DHT22;52783;50.502;8.190;2023-06-26T09:13:08;29.10;99.90
66013;DHT22;52783;50.502;8.190;2023-06-26T09:15:38;28.90;99.90
66013;DHT22;52783;50.502;8.190;2023-06-26T09:18:04;28.70;99.90
66013;DHT22;52783;50.502;8.190;2023-06-26T09:20:31;28.00;99.90
66013;DHT22;52783;50.502;8.190;2023-06-26T09:22:59;28.60;99.90
66013;DHT22;52783;50.502;8.190;2023-06-26T09:25:25;28.70;99.90
66013;DHT22;52783;50.502;8.190;2023-06-26T09:27:50;28.70;99.90
66013;DHT22;52783;50.502;8.190;2023-06-26T09:30:19;29.30;99.90
66013;DHT22;52783;50.502;8.190;2023-06-26T09:32:45;29.60;99.90
66013;DHT22;52783;50.502;8.190;2023-06-26T09:35:11;29.90;99.90
66013;DHT22;52783;50.502;8.190;2023-06-26T09:37:37;29.70;99.90
66013;DHT22;52783;50.502;8.190;2023-06-26T09:40:03;28.90;99.90
66013;DHT22;52783;50.502;8.190;2023-06-26T09:42:30;29.40;99.90
66013;DHT22;52783;50.502;8.190;2023-06-26T09:44:55;28.90;99.90
66013;DHT22;52783;50.502;8.190;2023-06-26T09:47:21;29.00;99.90
66013;DHT22;52783;50.502;8.190;2023-06-26T09:49:47;29.60;99.90
66013;DHT22;52783;50.502;8.190;2023-06-26T09:52:17;30.30;99.90
66013;DHT22;52783;50.502;8.190;2023-06-26T09:54:43;29.90;99.90
66013;DHT22;52783;50.502;8.190;2023-06-26T09:57:17;28.60;99.90
66013;DHT22;52783;50.502;8.190;2023-06-26T09:59:44;29.00;99.90
66013;DHT22;52783;50.502;8.190;2023-06-26T10:02:11;30.10;99.90
66013;DHT22;52783;50.502;8.190;2023-06-26T10:04:38;30.10;99.90
66013;DHT22;52783;50.502;8.190;2023-06-26T10:07:11;29.10;99.90
66013;DHT22;52783;50.502;8.190;2023-06-26T10:09:41;28.40;99.90
66013;DHT22;52783;50.502;8.190;2023-06-26T10:12:26;28.70;99.90
66013;DHT22;52783;50.502;8.190;2023-06-26T10:14:53;29.60;99.90
66013;DHT22;52783;50.502;8.190;2023-06-26T10:17:21;29.10;99.90
66013;DHT22;52783;50.502;8.190;2023-06-26T10:19:48;29.20;99.90
66013;DHT22;52783;50.502;8.190;2023-06-26T10:22:17;29.90;99.90
66013;DHT22;52783;50.502;8.190;2023-06-26T10:24:45;29.50;99.90
66013;DHT22;52783;50.502;8.190;2023-06-26T10:27:16;29.30;99.90
66013;DHT22;52783;50.502;8.190;2023-06-26T10:29:42;29.10;99.90
66013;DHT22;52783;50.502;8.190;2023-06-26T10:32:11;29.10;99.90
66013;DHT22;52783;50.502;8.190;2023-06-26T10:34:37;28.20;99.90
66013;DHT22;52783;50.502;8.190;2023-06-26T10:37:04;28.70;99.90
66013;DHT22;52783;50.502;8.190;2023-06-26T10:39:49;28.60;99.90
66013;DHT22;52783;50.502;8.190;2023-06-26T10:42:28;27.20;99.90
66013;DHT22;52783;50.502;8.190;2023-06-26T10:45:09;26.80;99.90
66013;DHT22;52783;50.502;8.190;2023-06-26T10:47:35;26.90;99.90
66013;DHT22;52783;50.502;8.190;2023-06-26T10:50:26;27.20;99.90
66013;DHT22;52783;50.502;8.190;2023-06-26T11:06:19;26.80;99.90
66013;DHT22;52783;50.502;8.190;2023-06-26T11:08:52;26.40;99.90
66013;DHT22;52783;50.502;8.190;2023-06-26T11:11:22;26.60;99.90
66013;DHT22;52783;50.502;8.190;2023-06-26T11:14:07;26.10;99.90
66013;DHT22;52783;50.502;8.190;2023-06-26T11:16:34;25.90;99.90
66013;DHT22;52783;50.502;8.190;2023-06-26T11:19:00;25.90;99.90
66013;DHT22;52783;50.502;8.190;2023-06-26T11:21:26;25.80;99.90
66013;DHT22;52783;50.502;8.190;2023-06-26T11:23:53;25.70;99.90
66013;DHT22;52783;50.502;8.190;2023-06-26T11:26:23;25.30;99.90
66013;DHT22;52783;50.502;8.190;2023-06-26T11:28:54;25.40;99.90
66013;DHT22;52783;50.502;8.190;2023-06-26T11:31:38;25.90;99.90
66013;DHT22;52783;50.502;8.190;2023-06-26T11:34:05;25.40;99.90
66013;DHT22;52783;50.502;8.190;2023-06-26T11:36:32;25.50;99.90
66013;DHT22;52783;50.502;8.190;2023-06-26T11:39:03;25.30;99.90
66013;DHT22;52783;50.502;8.190;2023-06-26T11:41:32;25.50;99.90
66013;DHT22;52783;50.502;8.190;2023-06-26T11:44:05;25.70;99.90
66013;DHT22;52783;50.502;8.190;2023-06-26T11:46:33;25.40;99.90
66013;DHT22;52783;50.502;8.190;2023-06-26T11:48:59;24.80;99.90
66013;DHT22;52783;50.502;8.190;2023-06-26T11:51:26;24.90;99.90
66013;DHT22;52783;50.502;8.190;2023-06-26T11:53:52;25.10;99.90
66013;DHT22;52783;50.502;8.190;2023-06-26T11:56:18;25.40;99.90
66013;DHT22;52783;50.502;8.190;2023-06-26T11:59:03;25.20;99.90
66013;DHT22;52783;50.502;8.190;2023-06-26T12:01:43;25.10;99.90
66013;DHT22;52783;50.502;8.190;2023-06-26T12:04:14;25.20;99.90
66013;DHT22;52783;50.502;8.190;2023-06-26T12:06:42;25.60;99.90
66013;DHT22;52783;50.502;8.190;2023-06-26T12:09:09;25.50;99.90
66013;DHT22;52783;50.502;8.190;2023-06-26T12:11:38;25.80;99.90
66013;DHT22;52783;50.502;8.190;2023-06-26T12:14:05;25.80;99.90
66013;DHT22;52783;50.502;8.190;2023-06-26T12:16:33;25.80;99.90
66013;DHT22;52783;50.502;8.190;2023-06-26T12:19:06;26.00;99.90
66013;DHT22;52783;50.502;8.190;2023-06-26T12:24:08;25.70;99.90
66013;DHT22;52783;50.502;8.190;2023-06-26T12:26:33;25.60;99.90
66013;DHT22;52783;50.502;8.190;2023-06-26T12:29:14;25.30;99.90
66013;DHT22;52783;50.502;8.190;2023-06-26T12:31:45;25.50;99.90
66013;DHT22;52783;50.502;8.190;2023-06-26T12:34:13;25.50;99.90
66013;DHT22;52783;50.502;8.190;2023-06-26T12:36:47;25.80;99.90
66013;DHT22;52783;50.502;8.190;2023-06-26T12:39:16;25.80;99.90
66013;DHT22;52783;50.502;8.190;2023-06-26T12:41:51;26.00;99.90
66013;DHT22;52783;50.502;8.190;2023-06-26T12:44:18;26.00;99.90
66013;DHT22;52783;50.502;8.190;2023-06-26T12:46:46;26.10;99.90
66013;DHT22;52783;50.502;8.190;2023-06-26T12:49:13;26.20;99.90
66013;DHT22;52783;50.502;8.190;2023-06-26T12:51:38;25.60;99.90
66013;DHT22;52783;50.502;8.190;2023-06-26T12:54:05;25.60;99.90
66013;DHT22;52783;50.502;8.190;2023-06-26T12:56:31;25.70;99.90
66013;DHT22;52783;50.502;8.190;2023-06-26T12:58:57;25.80;99.90
66013;DHT22;52783;50.502;8.190;2023-06-26T13:01:22;26.10;99.90
66013;DHT22;52783;50.502;8.190;2023-06-26T13:03:50;26.00;99.90
66013;DHT22;52783;50.502;8.190;2023-06-26T13:06:16;26.10;99.90
66013;DHT22;52783;50.502;8.190;2023-06-26T13:08:42;26.10;99.90
66013;DHT22;52783;50.502;8.190;2023-06-26T13:11:09;26.80;99.90
66013;DHT22;52783;50.502;8.190;2023-06-26T13:13:34;26.70;99.90
66013;DHT22;52783;50.502;8.190;2023-06-26T13:16:00;26.60;99.90
66013;DHT22;52783;50.502;8.190;2023-06-26T13:18:25;25.80;99.90
66013;DHT22;52783;50.502;8.190;2023-06-26T13:20:51;25.60;99.90
66013;DHT22;52783;50.502;8.190;2023-06-26T13:23:17;25.20;99.90
66013;DHT22;52783;50.502;8.190;2023-06-26T13:25:44;25.50;99.90
66013;DHT22;52783;50.502;8.190;2023-06-26T13:28:10;25.20;99.90
66013;DHT22;52783;50.502;8.190;2023-06-26T13:30:35;25.30;99.90
66013;DHT22;52783;50.502;8.190;2023-06-26T13:33:01;25.30;99.90
66013;DHT22;52783;50.502;8.190;2023-06-26T13:35:26;25.90;99.90
66013;DHT22;52783;50.502;8.190;2023-06-26T13:37:52;26.00;99.90
66013;DHT22;52783;50.502;8.190;2023-06-26T13:40:17;26.00;99.90
66013;DHT22;52783;50.502;8.190;2023-06-26T13:42:43;25.40;99.90
66013;DHT22;52783;50.502;8.190;2023-06-26T13:45:10;25.60;99.90
66013;DHT22;52783;50.502;8.190;2023-06-26T13:47:35;26.00;99.90
66013;DHT22;52783;50.502;8.190;2023-06-26T13:50:04;26.10;99.90
66013;DHT22;52783;50.502;8.190;2023-06-26T13:52:29;25.70;99.90
66013;DHT22;52783;50.502;8.190;2023-06-26T13:54:55;25.80;99.90
66013;DHT22;52783;50.502;8.190;2023-06-26T13:57:21;25.50;99.90
66013;DHT22;52783;50.502;8.190;2023-06-26T13:59:47;25.20;99.90
66013;DHT22;52783;50.502;8.190;2023-06-26T14:02:13;25.10;99.90
66013;DHT22;52783;50.502;8.190;2023-06-26T14:04:39;25.20;99.90
66013;DHT22;52783;50.502;8.190;2023-06-26T14:07:05;24.90;99.90
66013;DHT22;52783;50.502;8.190;2023-06-26T14:09:31;25.00;99.90
66013;DHT22;52783;50.502;8.190;2023-06-26T14:11:57;25.20;99.90
66013;DHT22;52783;50.502;8.190;2023-06-26T14:14:23;25.00;99.90
66013;DHT22;52783;50.502;8.190;2023-06-26T14:16:48;25.20;99.90
66013;DHT22;52783;50.502;8.190;2023-06-26T14:19:14;25.20;99.90
66013;DHT22;52783;50.502;8.190;2023-06-26T14:21:41;25.10;99.90
66013;DHT22;52783;50.502;8.190;2023-06-26T14:24:07;24.80;99.90
66013;DHT22;52783;50.502;8.190;2023-06-26T14:26:32;24.70;99.90
66013;DHT22;52783;50.502;8.190;2023-06-26T14:28:59;25.00;99.90
66013;DHT22;52783;50.502;8.190;2023-06-26T14:31:25;25.50;99.90
66013;DHT22;52783;50.502;8.190;2023-06-26T14:33:51;25.80;99.90
66013;DHT22;52783;50.502;8.190;2023-06-26T14:36:16;25.30;99.90
66013;DHT22;52783;50.502;8.190;2023-06-26T14:38:42;25.30;99.90
66013;DHT22;52783;50.502;8.190;2023-06-26T14:41:07;25.30;99.90
66013;DHT22;52783;50.502;8.190;2023-06-26T14:43:33;25.60;99.90
66013;DHT22;52783;50.502;8.190;2023-06-26T14:45:58;25.70;99.90
66013;DHT22;52783;50.502;8.190;2023-06-26T14:48:24;25.60;99.90
66013;DHT22;52783;50.502;8.190;2023-06-26T14:50:49;25.70;99.90
66013;DHT22;52783;50.502;8.190;2023-06-26T14:53:15;25.30;99.90
66013;DHT22;52783;50.502;8.190;2023-06-26T14:55:40;25.20;99.90
66013;DHT22;52783;50.502;8.190;2023-06-26T14:58:06;25.10;99.90
66013;DHT22;52783;50.502;8.190;2023-06-26T15:00:31;25.10;99.90
66013;DHT22;52783;50.502;8.190;2023-06-26T15:02:57;25.00;99.90
66013;DHT22;52783;50.502;8.190;2023-06-26T15:05:24;25.20;99.90
66013;DHT22;52783;50.502;8.190;2023-06-26T15:07:49;25.20;99.90
66013;DHT22;52783;50.502;8.190;2023-06-26T15:10:15;25.50;99.90
66013;DHT22;52783;50.502;8.190;2023-06-26T15:12:41;25.50;99.90
66013;DHT22;52783;50.502;8.190;2023-06-26T15:15:07;25.50;99.90
66013;DHT22;52783;50.502;8.190;2023-06-26T15:17:34;24.90;99.90
66013;DHT22;52783;50.502;8.190;2023-06-26T15:19:59;24.50;99.90
66013;DHT22;52783;50.502;8.190;2023-06-26T15:22:28;24.60;99.90
66013;DHT22;52783;50.502;8.190;2023-06-26T15:24:54;24.60;99.90
66013;DHT22;52783;50.502;8.190;2023-06-26T15:27:20;24.60;99.90
66013;DHT22;52783;50.502;8.190;2023-06-26T15:29:45;24.60;99.90
66013;DHT22;52783;50.502;8.190;2023-06-26T15:32:11;24.40;99.90
66013;DHT22;52783;50.502;8.190;2023-06-26T15:34:37;24.20;99.90
66013;DHT22;52783;50.502;8.190;2023-06-26T15:37:02;24.40;99.90
66013;DHT22;52783;50.502;8.190;2023-06-26T15:39:28;24.40;99.90
66013;DHT22;52783;50.502;8.190;2023-06-26T15:41:53;24.60;99.90
66013;DHT22;52783;50.502;8.190;2023-06-26T15:44:20;24.50;99.90
66013;DHT22;52783;50.502;8.190;2023-06-26T15:46:45;24.60;99.90
66013;DHT22;52783;50.502;8.190;2023-06-26T15:49:11;24.40;99.90